createdAt,value
2022-09-23T00:02:02.421Z,27.70
2022-09-23T00:04:31.546Z,26.90
2022-09-23T00:07:00.731Z,28.38
2022-09-23T00:09:30.131Z,31.83
2022-09-23T00:11:59.887Z,34.63
2022-09-23T00:14:29.240Z,31.30
2022-09-23T00:16:58.497Z,32.30
2022-09-23T00:19:29.588Z,32.30
2022-09-23T00:21:58.873Z,29.70
2022-09-23T00:24:32.400Z,27.98
2022-09-23T00:27:01.925Z,24.75
2022-09-23T00:29:31.962Z,27.90
2022-09-23T00:32:01.237Z,24.73
2022-09-23T00:34:32.057Z,25.70
2022-09-23T00:37:01.309Z,25.13
2022-09-23T00:39:30.723Z,24.15
2022-09-23T00:42:01.268Z,24.63
2022-09-23T00:44:48.238Z,21.92
2022-09-23T00:47:25.025Z,24.52
2022-09-23T00:50:07.018Z,25.83
2022-09-23T00:52:37.515Z,22.67
2022-09-23T00:55:14.042Z,23.92
2022-09-23T00:57:47.242Z,25.80
2022-09-23T01:00:17.007Z,24.45
2022-09-23T01:02:46.771Z,24.15
2022-09-23T01:05:18.315Z,25.90
2022-09-23T01:07:48.365Z,22.60
2022-09-23T01:10:19.646Z,22.88
2022-09-23T01:13:15.669Z,28.17
2022-09-23T01:15:50.812Z,24.85
2022-09-23T01:18:33.417Z,26.83
2022-09-23T01:21:22.810Z,30.40
2022-09-23T01:24:31.520Z,35.10
2022-09-23T01:27:12.031Z,40.22
2022-09-23T01:30:17.175Z,42.10
2022-09-23T01:33:10.949Z,41.72
2022-09-23T01:35:51.312Z,36.60
2022-09-23T01:38:37.490Z,37.72
2022-09-23T01:41:30.130Z,31.30
2022-09-23T01:44:07.278Z,28.63
2022-09-23T01:46:45.881Z,30.45
2022-09-23T01:49:21.616Z,29.40
2022-09-23T01:51:58.173Z,27.23
2022-09-23T01:54:38.883Z,27.27
2022-09-23T01:57:14.067Z,24.90
2022-09-23T01:59:49.049Z,27.02
2022-09-23T02:02:26.703Z,28.02
2022-09-23T02:05:03.864Z,27.67
2022-09-23T02:07:41.768Z,28.02
2022-09-23T02:10:19.697Z,24.10
2022-09-23T02:12:51.340Z,31.88
2022-09-23T02:15:24.901Z,28.80
2022-09-23T02:18:03.053Z,28.30
2022-09-23T02:20:39.732Z,23.63
2022-09-23T02:23:13.174Z,27.38
2022-09-23T02:25:51.608Z,27.40
2022-09-23T02:28:32.440Z,26.85
2022-09-23T02:31:09.526Z,30.40
2022-09-23T02:33:44.859Z,24.65
2022-09-23T02:36:25.834Z,28.80
2022-09-23T02:39:00.498Z,25.38
2022-09-23T02:41:34.770Z,26.30
2022-09-23T02:44:08.702Z,25.27
2022-09-23T02:46:39.127Z,27.95
2022-09-23T02:49:14.877Z,31.15
2022-09-23T02:51:45.911Z,22.95
2022-09-23T02:54:18.184Z,30.33
2022-09-23T02:56:48.355Z,26.98
2022-09-23T02:59:19.585Z,28.05
2022-09-23T03:02:14.297Z,33.92
2022-09-23T03:04:57.109Z,23.77
2022-09-23T03:07:37.422Z,26.50
2022-09-23T03:10:16.508Z,33.05
2022-09-23T03:12:54.074Z,27.52
2022-09-23T03:15:35.611Z,29.75
2022-09-23T03:18:16.742Z,26.05
2022-09-23T03:20:52.480Z,28.38
2022-09-23T03:23:30.595Z,28.08
2022-09-23T03:26:06.170Z,27.73
2022-09-23T03:28:38.551Z,29.80
2022-09-23T03:31:08.440Z,24.92
2022-09-23T03:33:40.471Z,28.38
2022-09-23T03:36:38.757Z,25.17
2022-09-23T03:39:17.473Z,24.33
2022-09-23T03:41:52.447Z,29.13
2022-09-23T03:44:23.488Z,25.17
2022-09-23T03:46:52.945Z,30.13
2022-09-23T03:49:28.548Z,32.00
2022-09-23T03:51:58.487Z,28.70
2022-09-23T03:54:30.070Z,36.75
2022-09-23T03:56:59.849Z,29.77
2022-09-23T03:59:30.448Z,38.90
2022-09-23T04:02:00.418Z,40.45
2022-09-23T04:04:29.782Z,41.95
2022-09-23T04:06:59.221Z,50.85
2022-09-23T04:09:29.754Z,49.10
2022-09-23T04:11:58.988Z,57.60
2022-09-23T04:14:28.367Z,58.17
2022-09-23T04:16:57.616Z,56.20
2022-09-23T04:19:26.879Z,49.78
2022-09-23T04:21:56.103Z,47.03
2022-09-23T04:24:25.510Z,43.42
2022-09-23T04:26:57.609Z,40.30
2022-09-23T04:29:27.776Z,32.92
2022-09-23T04:31:57.885Z,34.60
2022-09-23T04:34:27.059Z,36.42
2022-09-23T04:36:56.265Z,35.13
2022-09-23T04:39:25.370Z,33.85
2022-09-23T04:41:55.840Z,31.55
2022-09-23T04:44:26.874Z,32.17
2022-09-23T04:46:56.229Z,31.63
2022-09-23T04:49:26.327Z,31.48
2022-09-23T04:51:55.775Z,34.13
2022-09-23T04:54:26.528Z,33.55
2022-09-23T04:56:57.222Z,41.60
2022-09-23T04:59:26.727Z,46.60
2022-09-23T05:01:56.027Z,57.47
2022-09-23T05:04:25.228Z,61.25
2022-09-23T05:06:54.381Z,62.47
2022-09-23T05:09:23.493Z,56.00
2022-09-23T05:11:52.680Z,44.97
2022-09-23T05:14:23.480Z,45.97
2022-09-23T05:16:52.709Z,44.83
2022-09-23T05:19:21.916Z,46.08
2022-09-23T05:21:51.048Z,46.17
2022-09-23T05:24:20.305Z,42.83
2022-09-23T05:26:49.404Z,41.63
2022-09-23T05:29:18.934Z,40.88
2022-09-23T05:31:49.482Z,44.92
2022-09-23T05:34:19.176Z,43.95
2022-09-23T05:36:48.349Z,40.35
2022-09-23T05:39:17.664Z,38.65
2022-09-23T05:41:46.803Z,36.60
2022-09-23T05:44:15.946Z,38.63
2022-09-23T05:46:45.165Z,40.60
2022-09-23T05:49:15.808Z,40.85
2022-09-23T05:51:45.066Z,41.78
2022-09-23T05:54:14.227Z,38.05
2022-09-23T05:56:43.898Z,37.22
2022-09-23T05:59:13.032Z,35.03
2022-09-23T06:01:46.361Z,28.40
2022-09-23T06:04:17.034Z,33.53
2022-09-23T06:06:46.410Z,34.03
2022-09-23T06:09:16.498Z,33.00
2022-09-23T06:11:46.159Z,28.88
2022-09-23T06:14:16.025Z,29.10
2022-09-23T06:16:45.234Z,28.25
2022-09-23T06:19:14.373Z,31.52
2022-09-23T06:21:44.956Z,43.58
2022-09-23T06:24:18.261Z,36.15
2022-09-23T06:26:50.101Z,29.90
2022-09-23T06:29:19.649Z,29.30
2022-09-23T06:31:50.822Z,33.15
2022-09-23T06:34:20.592Z,30.42
2022-09-23T06:36:51.959Z,32.05
2022-09-23T06:39:21.022Z,32.42
2022-09-23T06:41:50.108Z,29.40
2022-09-23T06:44:19.388Z,28.30
2022-09-23T06:46:48.615Z,32.22
2022-09-23T06:49:17.893Z,35.10
2022-09-23T06:51:47.030Z,31.33
2022-09-23T06:54:17.605Z,31.73
2022-09-23T06:56:47.547Z,25.85
2022-09-23T06:59:18.447Z,32.15
2022-09-23T07:01:48.627Z,39.45
2022-09-23T07:04:18.000Z,47.75
2022-09-23T07:06:47.126Z,67.60
2022-09-23T07:09:17.714Z,88.88
2022-09-23T07:11:48.696Z,95.70
2022-09-23T07:14:17.946Z,103.18
2022-09-23T07:16:49.886Z,118.60
2022-09-23T07:19:19.173Z,107.40
2022-09-23T07:21:48.468Z,87.13
2022-09-23T07:24:19.155Z,79.78
2022-09-23T07:26:49.024Z,56.83
2022-09-23T07:29:18.278Z,61.58
2022-09-23T07:31:47.376Z,59.65
2022-09-23T07:34:16.490Z,62.65
2022-09-23T07:36:45.576Z,73.28
2022-09-23T07:39:15.151Z,52.35
2022-09-23T07:41:45.606Z,61.17
2022-09-23T07:44:14.956Z,55.35
2022-09-23T07:46:44.169Z,100.68
2022-09-23T07:49:13.709Z,54.67
2022-09-23T07:51:46.240Z,52.97
2022-09-23T07:54:17.578Z,52.17
2022-09-23T07:56:48.769Z,51.10
2022-09-23T07:59:20.292Z,50.90
2022-09-23T08:01:52.760Z,54.38
2022-09-23T08:06:55.260Z,51.22
2022-09-23T08:09:26.945Z,58.33
2022-09-23T08:11:57.461Z,64.40
2022-09-23T08:14:27.039Z,69.47
2022-09-23T08:16:56.932Z,53.03
2022-09-23T08:19:26.134Z,66.15
2022-09-23T08:21:55.333Z,51.90
2022-09-23T08:24:26.599Z,70.22
2022-09-23T08:26:57.439Z,54.90
2022-09-23T08:29:27.673Z,60.30
2022-09-23T08:31:57.238Z,49.00
2022-09-23T08:34:29.386Z,65.90
2022-09-23T08:36:58.556Z,52.20
2022-09-23T08:39:27.791Z,47.38
2022-09-23T08:42:20.125Z,51.95
2022-09-23T08:44:54.387Z,59.45
2022-09-23T08:47:28.051Z,104.43
2022-09-23T08:50:07.326Z,108.32
2022-09-23T08:52:43.290Z,122.68
2022-09-23T08:55:15.019Z,169.50
2022-09-23T08:58:23.917Z,123.77
2022-09-23T09:01:04.076Z,150.45
2022-09-23T09:03:39.392Z,115.97
2022-09-23T09:06:14.080Z,175.38
2022-09-23T09:08:45.479Z,160.02
2022-09-23T09:11:17.409Z,84.95
2022-09-23T09:13:58.910Z,96.13
2022-09-23T09:16:59.661Z,88.95
2022-09-23T09:19:59.395Z,136.75
2022-09-23T09:22:53.871Z,77.85
2022-09-23T09:25:44.651Z,66.07
2022-09-23T09:28:23.453Z,67.55
2022-09-23T09:30:59.940Z,82.00
2022-09-23T09:33:36.868Z,81.43
2022-09-23T09:36:26.885Z,122.70
2022-09-23T09:38:58.806Z,102.97
2022-09-23T09:41:31.644Z,104.88
2022-09-23T09:44:08.892Z,213.93
2022-09-23T09:46:54.671Z,236.40
2022-09-23T09:49:39.501Z,247.73
2022-09-23T09:52:20.093Z,204.73
2022-09-23T09:54:51.040Z,297.35
2022-09-23T09:57:35.833Z,325.13
2022-09-23T10:00:46.195Z,307.08
2022-09-23T10:03:40.095Z,284.27
2022-09-23T10:06:20.662Z,306.80
2022-09-23T10:09:14.034Z,288.02
2022-09-23T10:11:44.763Z,285.73
2022-09-23T10:14:18.767Z,286.17
2022-09-23T10:17:05.503Z,256.30
2022-09-23T10:19:39.407Z,263.85
2022-09-23T10:22:20.696Z,244.57
2022-09-23T10:24:52.727Z,234.38
2022-09-23T10:27:32.060Z,264.23
2022-09-23T10:30:04.597Z,242.25
2022-09-23T10:32:37.402Z,296.23
2022-09-23T10:35:18.119Z,279.02
2022-09-23T10:37:50.718Z,262.73
2022-09-23T10:43:51.967Z,254.25
2022-09-23T10:46:41.757Z,308.00
2022-09-23T10:49:36.676Z,292.48
2022-09-23T10:52:24.476Z,295.45
2022-09-23T10:55:08.052Z,297.60
2022-09-23T10:57:53.762Z,253.05
2022-09-23T11:00:29.521Z,247.35
2022-09-23T11:03:40.356Z,268.08
2022-09-23T11:06:25.199Z,261.17
2022-09-23T11:09:18.036Z,240.32
2022-09-23T11:12:06.893Z,255.60
2022-09-23T11:15:16.659Z,292.15
2022-09-23T11:18:30.449Z,282.60
2022-09-23T11:21:14.428Z,267.85
2022-09-23T11:24:08.859Z,258.38
2022-09-23T11:26:48.276Z,276.63
2022-09-23T11:29:36.542Z,291.42
2022-09-23T11:32:34.647Z,237.30
2022-09-23T11:35:16.538Z,247.60
2022-09-23T11:37:51.619Z,274.08
2022-09-23T11:40:30.242Z,288.67
2022-09-23T11:43:07.313Z,267.38
2022-09-23T11:45:41.190Z,294.83
2022-09-23T11:48:18.197Z,252.15
2022-09-23T11:50:55.595Z,249.25
2022-09-23T11:53:40.025Z,262.73
2022-09-23T11:56:31.900Z,213.45
2022-09-23T11:59:11.632Z,204.93
2022-09-23T12:01:47.968Z,205.68
2022-09-23T12:04:27.245Z,194.40
2022-09-23T12:07:02.741Z,216.70
2022-09-23T12:09:57.788Z,223.40
2022-09-23T12:12:39.143Z,199.60
2022-09-23T12:15:35.608Z,195.50
2022-09-23T12:18:43.998Z,270.25
2022-09-23T12:21:56.878Z,222.88
2022-09-23T12:24:56.696Z,253.50
2022-09-23T12:27:36.691Z,252.00
2022-09-23T12:30:14.626Z,220.20
2022-09-23T12:32:44.361Z,224.98
2022-09-23T12:35:24.224Z,260.40
2022-09-23T12:37:54.227Z,257.10
2022-09-23T12:40:31.224Z,279.55
2022-09-23T12:43:03.567Z,281.23
2022-09-23T12:45:41.551Z,250.80
2022-09-23T12:48:47.984Z,252.35
2022-09-23T12:51:23.547Z,261.20
2022-09-23T12:54:23.046Z,347.80
2022-09-23T12:57:11.127Z,277.52
2022-09-23T13:00:16.285Z,248.82
2022-09-23T13:03:16.492Z,211.07
2022-09-23T13:06:09.120Z,223.20
2022-09-23T13:08:41.753Z,199.70
2022-09-23T13:11:28.481Z,156.90
2022-09-23T13:14:01.111Z,180.07
2022-09-23T13:16:37.109Z,248.82
2022-09-23T13:19:08.285Z,199.95
2022-09-23T13:22:14.470Z,186.02
2022-09-23T13:24:53.389Z,198.27
2022-09-23T13:27:28.816Z,162.25
2022-09-23T13:30:04.084Z,174.77
2022-09-23T13:32:40.768Z,184.15
2022-09-23T13:35:24.366Z,179.02
2022-09-23T13:37:54.377Z,205.93
2022-09-23T13:40:26.793Z,197.43
2022-09-23T13:43:01.413Z,222.70
2022-09-23T13:45:32.481Z,179.30
2022-09-23T13:48:07.430Z,221.98
2022-09-23T13:50:40.948Z,224.13
2022-09-23T13:53:14.370Z,263.77
2022-09-23T13:55:43.629Z,213.63
2022-09-23T13:58:20.302Z,181.93
2022-09-23T14:00:50.906Z,171.32
2022-09-23T14:03:36.091Z,173.13
2022-09-23T14:06:10.964Z,194.10
2022-09-23T14:08:43.037Z,199.52
2022-09-23T14:11:17.652Z,203.73
2022-09-23T14:13:50.063Z,250.32
2022-09-23T14:18:53.025Z,223.10
2022-09-23T14:21:35.313Z,244.27
2022-09-23T14:24:17.247Z,260.63
2022-09-23T14:26:50.935Z,257.23
2022-09-23T14:29:25.493Z,244.70
2022-09-23T14:32:00.302Z,262.38
2022-09-23T14:35:09.328Z,217.95
2022-09-23T14:38:02.254Z,247.05
2022-09-23T14:40:34.168Z,249.65
2022-09-23T14:43:07.985Z,266.45
2022-09-23T14:45:40.589Z,254.00
2022-09-23T14:48:15.644Z,223.65
2022-09-23T14:50:52.572Z,237.00
2022-09-23T14:53:37.655Z,280.58
2022-09-23T14:56:20.493Z,238.88
2022-09-23T14:58:55.477Z,207.25
2022-09-23T15:01:39.217Z,257.67
2022-09-23T15:04:16.993Z,263.25
2022-09-23T15:06:55.913Z,209.95
2022-09-23T15:09:28.399Z,195.90
2022-09-23T15:14:39.778Z,235.02
2022-09-23T15:17:32.698Z,181.35
2022-09-23T15:20:06.670Z,223.68
2022-09-23T15:22:46.231Z,209.80
2022-09-23T15:25:22.690Z,206.45
2022-09-23T15:28:05.913Z,166.50
2022-09-23T15:30:38.245Z,169.13
2022-09-23T15:33:09.094Z,156.05
2022-09-23T15:35:40.416Z,137.05
2022-09-23T15:38:12.387Z,129.85
2022-09-23T15:40:41.701Z,139.25
2022-09-23T15:43:21.183Z,138.90
2022-09-23T15:45:53.287Z,127.78
2022-09-23T15:48:26.159Z,107.30
2022-09-23T15:50:56.012Z,95.65
2022-09-23T15:53:28.506Z,135.68
2022-09-23T15:55:58.755Z,112.35
2022-09-23T15:58:28.341Z,101.20
2022-09-23T16:00:58.372Z,92.35
2022-09-23T16:03:29.405Z,74.15
2022-09-23T16:06:02.456Z,88.75
2022-09-23T16:08:33.510Z,104.93
2022-09-23T16:11:03.506Z,90.80
2022-09-23T16:13:32.696Z,92.60
2022-09-23T16:16:02.271Z,62.25
2022-09-23T16:18:31.561Z,57.92
2022-09-23T16:21:00.749Z,74.43
2022-09-23T16:23:38.933Z,62.97
2022-09-23T16:26:15.291Z,67.90
2022-09-23T16:28:45.214Z,94.10
2022-09-23T16:31:16.297Z,74.72
2022-09-23T16:33:47.012Z,69.70
2022-09-23T16:36:25.987Z,53.50
2022-09-23T16:38:58.031Z,50.95
2022-09-23T16:41:29.651Z,58.63
2022-09-23T16:44:00.856Z,47.13
2022-09-23T16:46:31.662Z,55.03
2022-09-23T16:49:05.448Z,58.63
2022-09-23T16:51:38.674Z,47.85
2022-09-23T16:54:12.023Z,51.97
2022-09-23T16:56:45.383Z,49.47
2022-09-23T16:59:15.687Z,49.58
2022-09-23T17:02:02.552Z,54.53
2022-09-23T17:04:31.870Z,47.33
2022-09-23T17:07:01.039Z,52.70
2022-09-23T17:09:33.174Z,50.00
2022-09-23T17:12:13.840Z,50.25
2022-09-23T17:14:43.805Z,49.55
2022-09-23T17:17:13.930Z,47.75
2022-09-23T17:19:43.184Z,49.60
2022-09-23T17:22:12.317Z,47.42
2022-09-23T17:24:42.943Z,50.28
2022-09-23T17:27:12.139Z,50.85
2022-09-23T17:29:41.346Z,51.25
2022-09-23T17:32:13.250Z,55.67
2022-09-23T17:34:44.089Z,48.95
2022-09-23T17:37:13.332Z,56.88
2022-09-23T17:39:43.966Z,49.20
2022-09-23T17:42:13.307Z,53.38
2022-09-23T17:44:42.445Z,56.47
2022-09-23T17:47:11.546Z,47.55
2022-09-23T17:49:40.701Z,49.15
2022-09-23T17:52:10.148Z,49.67
2022-09-23T17:54:39.323Z,50.95
2022-09-23T17:57:09.941Z,57.65
2022-09-23T17:59:39.264Z,52.00
2022-09-23T18:02:10.583Z,52.88
2022-09-23T18:04:42.954Z,52.13
2022-09-23T18:07:12.086Z,48.33
2022-09-23T18:09:41.213Z,49.05
2022-09-23T18:12:11.846Z,49.88
2022-09-23T18:14:40.954Z,47.97
2022-09-23T18:17:11.054Z,52.55
2022-09-23T18:19:40.254Z,51.50
2022-09-23T18:22:09.430Z,52.00
2022-09-23T18:24:41.209Z,53.33
2022-09-23T18:27:11.722Z,59.47
2022-09-23T18:29:40.862Z,50.58
2022-09-23T18:32:13.960Z,54.15
2022-09-23T18:34:43.653Z,57.95
2022-09-23T18:37:16.027Z,48.15
2022-09-23T18:39:45.317Z,54.28
2022-09-23T18:42:15.865Z,57.85
2022-09-23T18:44:45.070Z,60.50
2022-09-23T18:47:34.147Z,56.10
2022-09-23T18:50:20.913Z,50.25
2022-09-23T18:52:49.991Z,45.88
2022-09-23T18:55:19.793Z,53.15
2022-09-23T18:57:50.284Z,45.47
2022-09-23T19:00:19.898Z,47.05
2022-09-23T19:02:49.010Z,46.55
2022-09-23T19:05:19.073Z,52.20
2022-09-23T19:07:48.262Z,57.63
2022-09-23T19:10:19.264Z,54.58
2022-09-23T19:12:50.022Z,51.50
2022-09-23T19:15:19.360Z,55.75
2022-09-23T19:17:48.497Z,58.17
2022-09-23T19:20:17.789Z,64.55
2022-09-23T19:22:48.425Z,67.60
2022-09-23T19:25:17.883Z,75.22
2022-09-23T19:27:47.040Z,77.00
2022-09-23T19:30:19.246Z,66.25
2022-09-23T19:32:49.118Z,100.78
2022-09-23T19:35:18.448Z,77.05
2022-09-23T19:37:49.436Z,86.28
2022-09-23T19:40:18.770Z,93.47
2022-09-23T19:42:47.969Z,75.63
2022-09-23T19:45:18.881Z,69.88
2022-09-23T19:47:48.443Z,74.97
2022-09-23T19:50:19.228Z,90.40
2022-09-23T19:52:51.865Z,91.22
2022-09-23T19:57:50.514Z,107.20
2022-09-23T20:00:21.458Z,88.70
2022-09-23T20:02:53.271Z,97.78
2022-09-23T20:05:23.285Z,83.00
2022-09-23T20:07:52.908Z,100.70
2022-09-23T20:10:22.794Z,73.97
2022-09-23T20:12:51.986Z,92.75
2022-09-23T20:15:23.348Z,69.07
2022-09-23T20:17:55.470Z,84.75
2022-09-23T20:20:28.489Z,86.18
2022-09-23T20:22:57.898Z,100.38
2022-09-23T20:25:27.105Z,113.13
2022-09-23T20:27:57.817Z,114.35
2022-09-23T20:30:39.640Z,82.20
2022-09-23T20:33:08.954Z,93.68
2022-09-23T20:35:39.150Z,101.20
2022-09-23T20:38:08.349Z,88.13
2022-09-23T20:40:38.850Z,94.93
2022-09-23T20:43:08.102Z,113.32
2022-09-23T20:45:38.753Z,100.07
2022-09-23T20:48:11.416Z,107.57
2022-09-23T20:53:12.280Z,105.03
2022-09-23T20:55:51.479Z,107.40
2022-09-23T20:58:29.269Z,97.55
2022-09-23T21:01:04.642Z,108.45
2022-09-23T21:03:34.988Z,106.10
2022-09-23T21:06:05.828Z,94.57
2022-09-23T21:08:39.440Z,104.47
2022-09-23T21:11:11.602Z,86.70
2022-09-23T21:13:41.076Z,117.38
2022-09-23T21:16:12.870Z,112.00
2022-09-23T21:18:42.077Z,115.40
2022-09-23T21:21:14.205Z,114.80
2022-09-23T21:23:44.079Z,101.93
2022-09-23T21:26:15.481Z,107.93
2022-09-23T21:28:46.656Z,107.45
2022-09-23T21:31:24.079Z,92.15
2022-09-23T21:33:59.146Z,102.25
2022-09-23T21:36:30.068Z,78.57
2022-09-23T21:39:02.258Z,63.35
2022-09-23T21:41:31.599Z,71.68
2022-09-23T21:44:03.397Z,56.22
2022-09-23T21:46:35.312Z,51.43
2022-09-23T21:49:05.171Z,52.58
2022-09-23T21:51:40.715Z,40.83
2022-09-23T21:54:14.550Z,34.95
2022-09-23T21:56:46.240Z,35.50
2022-09-23T21:59:15.399Z,38.47
2022-09-23T22:01:48.347Z,35.25
2022-09-23T22:04:21.191Z,34.13
2022-09-23T22:06:50.435Z,33.58
2022-09-23T22:09:22.603Z,35.22
2022-09-23T22:12:10.981Z,32.25
2022-09-23T22:14:43.457Z,33.88
2022-09-23T22:17:16.570Z,37.67
2022-09-23T22:19:47.157Z,36.80
2022-09-23T22:22:18.522Z,37.20
2022-09-23T22:24:48.590Z,41.65
2022-09-23T22:27:21.909Z,43.00
2022-09-23T22:30:08.191Z,46.33
2022-09-23T22:32:41.847Z,36.10
2022-09-23T22:35:13.515Z,40.90
2022-09-23T22:37:43.035Z,45.65
2022-09-23T22:40:15.312Z,57.20
2022-09-23T22:42:45.014Z,60.95
2022-09-23T22:45:14.670Z,55.00
2022-09-23T22:47:46.054Z,55.45
2022-09-23T22:50:15.914Z,52.53
2022-09-23T22:52:45.115Z,62.25
2022-09-23T22:55:14.335Z,55.08
2022-09-23T22:57:43.505Z,57.35
2022-09-23T23:00:14.156Z,60.92
2022-09-23T23:02:44.691Z,55.53
2022-09-23T23:05:14.596Z,60.00
2022-09-23T23:07:43.686Z,70.00
2022-09-23T23:10:14.262Z,63.05
2022-09-23T23:12:43.576Z,63.40
2022-09-23T23:15:12.989Z,58.70
2022-09-23T23:17:43.823Z,53.03
2022-09-23T23:20:14.691Z,59.67
2022-09-23T23:22:43.919Z,58.17
2022-09-23T23:25:13.128Z,56.63
2022-09-23T23:27:42.254Z,62.83
2022-09-23T23:30:12.610Z,59.72
